Terminal Aerodrome Forecast
Issued by NWS Wilmington, OH

Current Version | Previous Version | Graphics & Text | Print | Product List | Glossary On
Versions: 1 2 3 4 5 6 7 8 9 10 11 12 13 14 15 16
000
FTUS41 KILN 250539
TAFDAY
TAF
KDAY 250539Z 2506/2606 27006KT P6SM SKC
     FM251400 26010KT P6SM SKC
     FM251600 27015G24KT P6SM SCT050
     FM260000 28008KT P6SM SCT050=

USA.gov is the U.S. government's official web portal to all federal, state and local government web resources and services.